sensor_id;sensor_type;location;lat;lon;timestamp;P1;durP1;ratioP1;P2;durP2;ratioP2
65971;SDS011;52726;48.852;9.152;2022-12-16T00:00:07;19.35;;;9.35;;
65971;SDS011;52726;48.852;9.152;2022-12-16T00:02:34;15.52;;;10.98;;
65971;SDS011;52726;48.852;9.152;2022-12-16T00:04:59;15.75;;;8.15;;
65971;SDS011;52726;48.852;9.152;2022-12-16T00:07:25;19.38;;;8.70;;
65971;SDS011;52726;48.852;9.152;2022-12-16T00:09:50;22.95;;;9.52;;
65971;SDS011;52726;48.852;9.152;2022-12-16T00:12:16;16.55;;;8.60;;
65971;SDS011;52726;48.852;9.152;2022-12-16T00:14:41;17.92;;;9.90;;
65971;SDS011;52726;48.852;9.152;2022-12-16T00:17:06;23.13;;;9.68;;
65971;SDS011;52726;48.852;9.152;2022-12-16T00:19:31;19.20;;;9.32;;
65971;SDS011;52726;48.852;9.152;2022-12-16T00:21:57;16.02;;;9.00;;
65971;SDS011;52726;48.852;9.152;2022-12-16T00:24:22;24.67;;;8.48;;
65971;SDS011;52726;48.852;9.152;2022-12-16T00:26:48;19.05;;;9.05;;
65971;SDS011;52726;48.852;9.152;2022-12-16T00:29:13;14.32;;;8.90;;
65971;SDS011;52726;48.852;9.152;2022-12-16T00:31:39;18.45;;;10.23;;
65971;SDS011;52726;48.852;9.152;2022-12-16T00:34:04;14.93;;;8.85;;
65971;SDS011;52726;48.852;9.152;2022-12-16T00:36:30;18.50;;;8.43;;
65971;SDS011;52726;48.852;9.152;2022-12-16T00:38:55;14.73;;;8.40;;
65971;SDS011;52726;48.852;9.152;2022-12-16T00:41:21;18.98;;;8.75;;
65971;SDS011;52726;48.852;9.152;2022-12-16T00:43:46;15.60;;;8.50;;
65971;SDS011;52726;48.852;9.152;2022-12-16T00:46:12;16.42;;;9.32;;
65971;SDS011;52726;48.852;9.152;2022-12-16T00:48:37;18.58;;;8.43;;
65971;SDS011;52726;48.852;9.152;2022-12-16T00:51:05;17.60;;;10.15;;
65971;SDS011;52726;48.852;9.152;2022-12-16T00:53:30;15.43;;;8.60;;
65971;SDS011;52726;48.852;9.152;2022-12-16T00:56:06;13.63;;;9.00;;
65971;SDS011;52726;48.852;9.152;2022-12-16T00:58:33;17.92;;;8.15;;
65971;SDS011;52726;48.852;9.152;2022-12-16T01:00:59;16.15;;;8.48;;
65971;SDS011;52726;48.852;9.152;2022-12-16T01:03:24;21.10;;;8.52;;
65971;SDS011;52726;48.852;9.152;2022-12-16T01:05:50;20.60;;;8.55;;
65971;SDS011;52726;48.852;9.152;2022-12-16T01:08:15;14.00;;;7.57;;
65971;SDS011;52726;48.852;9.152;2022-12-16T01:10:54;18.13;;;8.15;;
65971;SDS011;52726;48.852;9.152;2022-12-16T01:13:21;11.48;;;7.68;;
65971;SDS011;52726;48.852;9.152;2022-12-16T01:15:48;20.02;;;9.45;;
65971;SDS011;52726;48.852;9.152;2022-12-16T01:18:14;17.17;;;8.43;;
65971;SDS011;52726;48.852;9.152;2022-12-16T01:20:40;15.70;;;8.30;;
65971;SDS011;52726;48.852;9.152;2022-12-16T01:23:05;17.98;;;8.27;;
65971;SDS011;52726;48.852;9.152;2022-12-16T01:25:31;12.88;;;6.38;;
65971;SDS011;52726;48.852;9.152;2022-12-16T01:27:56;14.75;;;6.93;;
65971;SDS011;52726;48.852;9.152;2022-12-16T01:30:22;16.98;;;8.50;;
65971;SDS011;52726;48.852;9.152;2022-12-16T01:32:48;12.52;;;8.27;;
65971;SDS011;52726;48.852;9.152;2022-12-16T01:35:14;15.07;;;8.35;;
65971;SDS011;52726;48.852;9.152;2022-12-16T01:37:39;14.95;;;8.07;;
65971;SDS011;52726;48.852;9.152;2022-12-16T01:40:05;18.48;;;8.75;;
65971;SDS011;52726;48.852;9.152;2022-12-16T01:42:33;15.68;;;9.85;;
65971;SDS011;52726;48.852;9.152;2022-12-16T01:47:58;16.30;;;8.35;;
65971;SDS011;52726;48.852;9.152;2022-12-16T01:50:27;24.15;;;9.70;;
65971;SDS011;52726;48.852;9.152;2022-12-16T01:52:54;14.75;;;8.70;;
65971;SDS011;52726;48.852;9.152;2022-12-16T01:55:25;23.10;;;8.90;;
65971;SDS011;52726;48.852;9.152;2022-12-16T01:57:56;16.30;;;7.72;;
65971;SDS011;52726;48.852;9.152;2022-12-16T02:00:33;12.77;;;6.70;;
65971;SDS011;52726;48.852;9.152;2022-12-16T02:03:00;18.08;;;8.27;;
65971;SDS011;52726;48.852;9.152;2022-12-16T02:05:26;15.50;;;8.10;;
65971;SDS011;52726;48.852;9.152;2022-12-16T02:08:00;17.65;;;8.82;;
65971;SDS011;52726;48.852;9.152;2022-12-16T02:16:05;14.77;;;7.85;;
65971;SDS011;52726;48.852;9.152;2022-12-16T02:18:56;11.45;;;7.28;;
65971;SDS011;52726;48.852;9.152;2022-12-16T02:24:25;12.35;;;6.38;;
65971;SDS011;52726;48.852;9.152;2022-12-16T02:32:21;12.60;;;6.80;;
65971;SDS011;52726;48.852;9.152;2022-12-16T02:35:09;13.15;;;8.00;;
65971;SDS011;52726;48.852;9.152;2022-12-16T02:40:43;16.73;;;8.30;;
65971;SDS011;52726;48.852;9.152;2022-12-16T02:43:18;14.88;;;7.50;;
65971;SDS011;52726;48.852;9.152;2022-12-16T02:45:58;12.32;;;7.70;;
65971;SDS011;52726;48.852;9.152;2022-12-16T02:48:24;14.40;;;8.70;;
65971;SDS011;52726;48.852;9.152;2022-12-16T02:50:50;18.85;;;10.20;;
65971;SDS011;52726;48.852;9.152;2022-12-16T02:53:19;13.68;;;8.05;;
65971;SDS011;52726;48.852;9.152;2022-12-16T02:55:54;12.82;;;7.60;;
65971;SDS011;52726;48.852;9.152;2022-12-16T02:58:51;19.25;;;9.00;;
65971;SDS011;52726;48.852;9.152;2022-12-16T03:01:47;17.15;;;7.97;;
65971;SDS011;52726;48.852;9.152;2022-12-16T03:04:19;18.05;;;8.07;;
65971;SDS011;52726;48.852;9.152;2022-12-16T03:06:49;18.63;;;8.47;;
65971;SDS011;52726;48.852;9.152;2022-12-16T03:09:21;12.38;;;7.30;;
65971;SDS011;52726;48.852;9.152;2022-12-16T03:11:50;12.10;;;6.28;;
65971;SDS011;52726;48.852;9.152;2022-12-16T03:14:18;11.77;;;6.03;;
65971;SDS011;52726;48.852;9.152;2022-12-16T03:16:47;11.07;;;6.35;;
65971;SDS011;52726;48.852;9.152;2022-12-16T03:19:13;10.52;;;6.00;;
65971;SDS011;52726;48.852;9.152;2022-12-16T03:21:49;15.05;;;8.05;;
65971;SDS011;52726;48.852;9.152;2022-12-16T03:29:34;10.38;;;6.75;;
65971;SDS011;52726;48.852;9.152;2022-12-16T03:32:06;10.15;;;5.88;;
65971;SDS011;52726;48.852;9.152;2022-12-16T03:34:45;9.60;;;6.00;;
65971;SDS011;52726;48.852;9.152;2022-12-16T03:37:15;5.95;;;4.85;;
65971;SDS011;52726;48.852;9.152;2022-12-16T03:39:45;14.48;;;6.15;;
65971;SDS011;52726;48.852;9.152;2022-12-16T03:42:14;18.38;;;7.10;;
65971;SDS011;52726;48.852;9.152;2022-12-16T03:44:39;8.63;;;5.32;;
65971;SDS011;52726;48.852;9.152;2022-12-16T03:47:07;13.20;;;7.20;;
65971;SDS011;52726;48.852;9.152;2022-12-16T03:49:32;12.15;;;6.35;;
65971;SDS011;52726;48.852;9.152;2022-12-16T03:51:57;15.02;;;6.55;;
65971;SDS011;52726;48.852;9.152;2022-12-16T03:54:23;11.90;;;6.93;;
65971;SDS011;52726;48.852;9.152;2022-12-16T03:56:49;17.75;;;6.05;;
65971;SDS011;52726;48.852;9.152;2022-12-16T03:59:15;16.30;;;6.57;;
65971;SDS011;52726;48.852;9.152;2022-12-16T04:01:40;9.60;;;5.65;;
65971;SDS011;52726;48.852;9.152;2022-12-16T04:04:06;12.70;;;7.00;;
65971;SDS011;52726;48.852;9.152;2022-12-16T04:06:31;13.38;;;4.85;;
65971;SDS011;52726;48.852;9.152;2022-12-16T04:08:56;9.40;;;4.78;;
65971;SDS011;52726;48.852;9.152;2022-12-16T04:11:22;6.20;;;4.57;;
65971;SDS011;52726;48.852;9.152;2022-12-16T04:14:09;10.20;;;5.40;;
65971;SDS011;52726;48.852;9.152;2022-12-16T04:16:53;9.88;;;4.90;;
65971;SDS011;52726;48.852;9.152;2022-12-16T04:19:37;7.10;;;3.97;;
65971;SDS011;52726;48.852;9.152;2022-12-16T04:22:27;5.50;;;4.18;;
65971;SDS011;52726;48.852;9.152;2022-12-16T04:25:18;9.63;;;5.03;;
65971;SDS011;52726;48.852;9.152;2022-12-16T04:27:46;9.32;;;6.93;;
65971;SDS011;52726;48.852;9.152;2022-12-16T04:30:15;13.00;;;5.63;;
65971;SDS011;52726;48.852;9.152;2022-12-16T04:33:28;10.18;;;7.07;;
65971;SDS011;52726;48.852;9.152;2022-12-16T04:35:54;11.77;;;6.10;;
65971;SDS011;52726;48.852;9.152;2022-12-16T04:38:38;10.02;;;5.75;;
65971;SDS011;52726;48.852;9.152;2022-12-16T04:41:22;9.10;;;5.68;;
65971;SDS011;52726;48.852;9.152;2022-12-16T04:44:07;8.40;;;4.25;;
65971;SDS011;52726;48.852;9.152;2022-12-16T04:46:52;8.55;;;5.50;;
65971;SDS011;52726;48.852;9.152;2022-12-16T04:49:35;7.53;;;4.93;;
65971;SDS011;52726;48.852;9.152;2022-12-16T04:52:19;24.52;;;5.60;;
65971;SDS011;52726;48.852;9.152;2022-12-16T04:55:04;17.30;;;6.88;;
65971;SDS011;52726;48.852;9.152;2022-12-16T04:57:52;6.20;;;5.00;;
65971;SDS011;52726;48.852;9.152;2022-12-16T05:00:38;6.07;;;4.18;;
65971;SDS011;52726;48.852;9.152;2022-12-16T05:03:22;5.95;;;4.38;;
65971;SDS011;52726;48.852;9.152;2022-12-16T05:06:06;7.53;;;5.35;;
65971;SDS011;52726;48.852;9.152;2022-12-16T05:08:50;6.82;;;4.55;;
65971;SDS011;52726;48.852;9.152;2022-12-16T05:11:35;10.00;;;5.50;;
65971;SDS011;52726;48.852;9.152;2022-12-16T05:14:18;9.88;;;4.72;;
65971;SDS011;52726;48.852;9.152;2022-12-16T05:17:02;7.38;;;4.68;;
65971;SDS011;52726;48.852;9.152;2022-12-16T05:19:47;12.52;;;6.18;;
65971;SDS011;52726;48.852;9.152;2022-12-16T05:22:31;15.88;;;6.82;;
65971;SDS011;52726;48.852;9.152;2022-12-16T05:25:15;13.85;;;5.38;;
65971;SDS011;52726;48.852;9.152;2022-12-16T05:28:00;8.73;;;5.38;;
65971;SDS011;52726;48.852;9.152;2022-12-16T05:30:44;7.30;;;5.05;;
65971;SDS011;52726;48.852;9.152;2022-12-16T05:33:28;8.23;;;5.65;;
65971;SDS011;52726;48.852;9.152;2022-12-16T05:36:11;13.90;;;4.63;;
65971;SDS011;52726;48.852;9.152;2022-12-16T05:38:55;11.75;;;5.72;;
65971;SDS011;52726;48.852;9.152;2022-12-16T05:41:39;8.80;;;5.20;;
65971;SDS011;52726;48.852;9.152;2022-12-16T05:44:23;10.63;;;5.95;;
65971;SDS011;52726;48.852;9.152;2022-12-16T05:47:07;9.95;;;4.78;;
65971;SDS011;52726;48.852;9.152;2022-12-16T05:49:52;12.38;;;6.07;;
65971;SDS011;52726;48.852;9.152;2022-12-16T05:52:36;11.10;;;6.35;;
65971;SDS011;52726;48.852;9.152;2022-12-16T05:55:20;19.75;;;6.32;;
65971;SDS011;52726;48.852;9.152;2022-12-16T05:58:04;11.60;;;6.88;;
65971;SDS011;52726;48.852;9.152;2022-12-16T06:00:48;11.07;;;6.05;;
65971;SDS011;52726;48.852;9.152;2022-12-16T06:03:32;12.95;;;4.63;;
65971;SDS011;52726;48.852;9.152;2022-12-16T06:06:16;9.15;;;4.97;;
65971;SDS011;52726;48.852;9.152;2022-12-16T06:09:00;15.80;;;5.88;;
65971;SDS011;52726;48.852;9.152;2022-12-16T06:11:44;14.77;;;5.68;;
65971;SDS011;52726;48.852;9.152;2022-12-16T06:14:28;4.32;;;3.83;;
65971;SDS011;52726;48.852;9.152;2022-12-16T06:17:12;6.25;;;4.63;;
65971;SDS011;52726;48.852;9.152;2022-12-16T06:19:56;11.15;;;5.25;;
65971;SDS011;52726;48.852;9.152;2022-12-16T06:22:40;7.43;;;4.10;;
65971;SDS011;52726;48.852;9.152;2022-12-16T06:25:24;10.63;;;4.53;;
65971;SDS011;52726;48.852;9.152;2022-12-16T06:28:07;7.47;;;4.90;;
65971;SDS011;52726;48.852;9.152;2022-12-16T06:30:51;6.88;;;4.28;;
65971;SDS011;52726;48.852;9.152;2022-12-16T06:33:35;6.43;;;4.68;;
65971;SDS011;52726;48.852;9.152;2022-12-16T06:36:19;13.73;;;7.18;;
65971;SDS011;52726;48.852;9.152;2022-12-16T06:39:03;4.97;;;4.32;;
65971;SDS011;52726;48.852;9.152;2022-12-16T06:41:47;12.80;;;4.95;;
65971;SDS011;52726;48.852;9.152;2022-12-16T06:44:31;18.45;;;5.18;;
65971;SDS011;52726;48.852;9.152;2022-12-16T06:47:15;6.45;;;4.35;;
65971;SDS011;52726;48.852;9.152;2022-12-16T06:49:59;10.63;;;5.45;;
65971;SDS011;52726;48.852;9.152;2022-12-16T06:52:43;19.25;;;5.18;;
65971;SDS011;52726;48.852;9.152;2022-12-16T06:55:28;10.35;;;5.43;;
65971;SDS011;52726;48.852;9.152;2022-12-16T06:58:12;14.82;;;6.88;;
65971;SDS011;52726;48.852;9.152;2022-12-16T07:01:01;9.93;;;5.47;;
65971;SDS011;52726;48.852;9.152;2022-12-16T07:03:49;12.20;;;6.60;;
65971;SDS011;52726;48.852;9.152;2022-12-16T07:06:33;11.05;;;7.38;;
65971;SDS011;52726;48.852;9.152;2022-12-16T07:09:17;8.57;;;5.18;;
65971;SDS011;52726;48.852;9.152;2022-12-16T07:12:01;13.40;;;5.28;;
65971;SDS011;52726;48.852;9.152;2022-12-16T07:14:45;9.30;;;5.43;;
65971;SDS011;52726;48.852;9.152;2022-12-16T07:17:29;10.63;;;5.65;;
65971;SDS011;52726;48.852;9.152;2022-12-16T07:20:13;8.80;;;5.25;;
65971;SDS011;52726;48.852;9.152;2022-12-16T07:22:57;10.70;;;5.45;;
65971;SDS011;52726;48.852;9.152;2022-12-16T07:25:41;6.57;;;4.72;;
65971;SDS011;52726;48.852;9.152;2022-12-16T07:28:24;12.43;;;5.93;;
65971;SDS011;52726;48.852;9.152;2022-12-16T07:31:09;4.22;;;2.97;;
65971;SDS011;52726;48.852;9.152;2022-12-16T07:33:53;5.90;;;4.38;;
65971;SDS011;52726;48.852;9.152;2022-12-16T07:36:37;7.35;;;4.53;;
65971;SDS011;52726;48.852;9.152;2022-12-16T07:39:21;8.63;;;4.32;;
65971;SDS011;52726;48.852;9.152;2022-12-16T07:42:05;8.15;;;4.53;;
65971;SDS011;52726;48.852;9.152;2022-12-16T07:44:49;18.88;;;5.78;;
65971;SDS011;52726;48.852;9.152;2022-12-16T07:47:32;7.15;;;4.88;;
65971;SDS011;52726;48.852;9.152;2022-12-16T07:50:16;13.15;;;6.20;;
65971;SDS011;52726;48.852;9.152;2022-12-16T07:53:00;7.00;;;5.22;;
65971;SDS011;52726;48.852;9.152;2022-12-16T07:55:44;8.93;;;4.63;;
65971;SDS011;52726;48.852;9.152;2022-12-16T07:58:28;8.13;;;5.38;;
65971;SDS011;52726;48.852;9.152;2022-12-16T08:01:13;7.32;;;5.47;;
65971;SDS011;52726;48.852;9.152;2022-12-16T08:03:57;15.98;;;6.88;;
65971;SDS011;52726;48.852;9.152;2022-12-16T08:06:40;11.65;;;4.60;;
65971;SDS011;52726;48.852;9.152;2022-12-16T08:09:25;11.52;;;5.68;;
65971;SDS011;52726;48.852;9.152;2022-12-16T08:12:09;7.88;;;5.22;;
65971;SDS011;52726;48.852;9.152;2022-12-16T08:15:13;5.55;;;3.65;;
65971;SDS011;52726;48.852;9.152;2022-12-16T08:17:57;8.55;;;5.35;;
65971;SDS011;52726;48.852;9.152;2022-12-16T08:20:41;13.30;;;6.40;;
65971;SDS011;52726;48.852;9.152;2022-12-16T08:26:30;6.72;;;4.30;;
65971;SDS011;52726;48.852;9.152;2022-12-16T08:29:14;10.95;;;4.40;;
65971;SDS011;52726;48.852;9.152;2022-12-16T08:31:58;8.38;;;3.67;;
65971;SDS011;52726;48.852;9.152;2022-12-16T08:34:42;11.70;;;4.35;;
65971;SDS011;52726;48.852;9.152;2022-12-16T08:37:26;7.97;;;3.63;;
65971;SDS011;52726;48.852;9.152;2022-12-16T08:40:10;7.07;;;4.13;;
65971;SDS011;52726;48.852;9.152;2022-12-16T08:42:55;5.78;;;4.10;;
65971;SDS011;52726;48.852;9.152;2022-12-16T08:45:40;17.15;;;5.53;;
65971;SDS011;52726;48.852;9.152;2022-12-16T08:48:24;9.68;;;5.00;;
65971;SDS011;52726;48.852;9.152;2022-12-16T08:51:08;11.10;;;6.47;;
65971;SDS011;52726;48.852;9.152;2022-12-16T08:56:47;7.20;;;4.28;;
65971;SDS011;52726;48.852;9.152;2022-12-16T08:59:31;23.00;;;4.68;;
65971;SDS011;52726;48.852;9.152;2022-12-16T09:02:15;7.22;;;4.68;;
65971;SDS011;52726;48.852;9.152;2022-12-16T09:04:59;9.98;;;4.55;;
65971;SDS011;52726;48.852;9.152;2022-12-16T09:07:43;21.67;;;4.22;;
65971;SDS011;52726;48.852;9.152;2022-12-16T09:10:27;4.75;;;3.85;;
65971;SDS011;52726;48.852;9.152;2022-12-16T09:13:12;8.85;;;4.78;;
65971;SDS011;52726;48.852;9.152;2022-12-16T09:15:59;9.43;;;4.25;;
65971;SDS011;52726;48.852;9.152;2022-12-16T09:18:43;7.13;;;4.30;;
65971;SDS011;52726;48.852;9.152;2022-12-16T09:21:27;9.27;;;5.22;;
65971;SDS011;52726;48.852;9.152;2022-12-16T09:24:12;4.90;;;3.50;;
65971;SDS011;52726;48.852;9.152;2022-12-16T09:26:56;6.60;;;3.85;;
65971;SDS011;52726;48.852;9.152;2022-12-16T09:29:40;8.20;;;4.88;;
65971;SDS011;52726;48.852;9.152;2022-12-16T09:32:24;4.03;;;3.47;;
65971;SDS011;52726;48.852;9.152;2022-12-16T09:35:08;7.93;;;4.22;;
65971;SDS011;52726;48.852;9.152;2022-12-16T09:37:53;7.85;;;4.15;;
65971;SDS011;52726;48.852;9.152;2022-12-16T09:40:38;7.45;;;3.70;;
65971;SDS011;52726;48.852;9.152;2022-12-16T09:46:58;4.15;;;3.35;;
65971;SDS011;52726;48.852;9.152;2022-12-16T09:49:49;1.40;;;1.40;;
65971;SDS011;52726;48.852;9.152;2022-12-16T09:52:48;8.05;;;4.22;;
65971;SDS011;52726;48.852;9.152;2022-12-16T11:07:55;5.82;;;3.50;;
65971;SDS011;52726;48.852;9.152;2022-12-16T11:10:40;8.77;;;3.25;;
65971;SDS011;52726;48.852;9.152;2022-12-16T11:13:27;2.90;;;2.60;;
65971;SDS011;52726;48.852;9.152;2022-12-16T11:16:25;5.10;;;2.70;;
65971;SDS011;52726;48.852;9.152;2022-12-16T11:19:44;5.47;;;3.25;;
65971;SDS011;52726;48.852;9.152;2022-12-16T11:22:21;2.70;;;2.60;;
65971;SDS011;52726;48.852;9.152;2022-12-16T11:25:13;4.00;;;3.10;;
65971;SDS011;52726;48.852;9.152;2022-12-16T11:31:21;8.68;;;3.83;;
65971;SDS011;52726;48.852;9.152;2022-12-16T11:34:12;12.10;;;3.47;;
65971;SDS011;52726;48.852;9.152;2022-12-16T11:36:56;3.45;;;3.15;;
65971;SDS011;52726;48.852;9.152;2022-12-16T11:39:40;5.82;;;3.50;;
65971;SDS011;52726;48.852;9.152;2022-12-16T11:42:27;7.05;;;3.58;;
65971;SDS011;52726;48.852;9.152;2022-12-16T11:45:18;4.22;;;3.65;;
65971;SDS011;52726;48.852;9.152;2022-12-16T11:48:10;2.95;;;1.73;;
65971;SDS011;52726;48.852;9.152;2022-12-16T11:51:14;4.40;;;3.10;;
65971;SDS011;52726;48.852;9.152;2022-12-16T11:56:57;4.18;;;3.22;;
65971;SDS011;52726;48.852;9.152;2022-12-16T11:59:47;4.43;;;3.47;;
65971;SDS011;52726;48.852;9.152;2022-12-16T12:02:38;5.53;;;3.80;;
65971;SDS011;52726;48.852;9.152;2022-12-16T12:05:37;6.47;;;4.23;;
65971;SDS011;52726;48.852;9.152;2022-12-16T12:11:29;4.05;;;3.15;;
65971;SDS011;52726;48.852;9.152;2022-12-16T12:20:35;5.65;;;4.25;;
65971;SDS011;52726;48.852;9.152;2022-12-16T12:23:34;9.32;;;3.28;;
65971;SDS011;52726;48.852;9.152;2022-12-16T12:26:32;6.38;;;4.20;;
65971;SDS011;52726;48.852;9.152;2022-12-16T12:29:29;11.57;;;3.97;;
65971;SDS011;52726;48.852;9.152;2022-12-16T12:35:23;8.43;;;4.78;;
65971;SDS011;52726;48.852;9.152;2022-12-16T12:38:39;5.00;;;3.22;;
65971;SDS011;52726;48.852;9.152;2022-12-16T12:41:49;6.65;;;3.75;;
65971;SDS011;52726;48.852;9.152;2022-12-16T12:45:03;9.52;;;4.93;;
65971;SDS011;52726;48.852;9.152;2022-12-16T12:57:28;6.13;;;3.80;;
65971;SDS011;52726;48.852;9.152;2022-12-16T13:03:02;28.67;;;3.88;;
65971;SDS011;52726;48.852;9.152;2022-12-16T13:06:06;9.95;;;4.18;;
65971;SDS011;52726;48.852;9.152;2022-12-16T13:11:35;9.60;;;4.18;;
65971;SDS011;52726;48.852;9.152;2022-12-16T13:17:13;10.57;;;4.55;;
65971;SDS011;52726;48.852;9.152;2022-12-16T13:19:58;5.70;;;3.50;;
65971;SDS011;52726;48.852;9.152;2022-12-16T13:22:43;9.73;;;3.70;;
65971;SDS011;52726;48.852;9.152;2022-12-16T13:28:24;14.02;;;4.40;;
65971;SDS011;52726;48.852;9.152;2022-12-16T13:31:13;13.68;;;5.85;;
65971;SDS011;52726;48.852;9.152;2022-12-16T13:34:00;6.90;;;4.70;;
65971;SDS011;52726;48.852;9.152;2022-12-16T13:36:54;8.57;;;4.97;;
65971;SDS011;52726;48.852;9.152;2022-12-16T13:39:42;9.07;;;5.72;;
65971;SDS011;52726;48.852;9.152;2022-12-16T13:43:00;12.93;;;4.82;;
65971;SDS011;52726;48.852;9.152;2022-12-16T13:45:41;11.70;;;4.03;;
65971;SDS011;52726;48.852;9.152;2022-12-16T13:48:33;8.55;;;4.90;;
65971;SDS011;52726;48.852;9.152;2022-12-16T13:54:28;9.63;;;4.63;;
65971;SDS011;52726;48.852;9.152;2022-12-16T13:57:18;10.23;;;4.32;;
65971;SDS011;52726;48.852;9.152;2022-12-16T14:00:06;9.75;;;3.88;;
65971;SDS011;52726;48.852;9.152;2022-12-16T14:03:00;15.68;;;6.00;;
65971;SDS011;52726;48.852;9.152;2022-12-16T14:05:47;6.13;;;3.38;;
65971;SDS011;52726;48.852;9.152;2022-12-16T14:08:34;8.93;;;4.93;;
65971;SDS011;52726;48.852;9.152;2022-12-16T14:11:30;7.50;;;3.80;;
65971;SDS011;52726;48.852;9.152;2022-12-16T14:14:35;4.80;;;3.63;;
65971;SDS011;52726;48.852;9.152;2022-12-16T14:17:32;8.15;;;4.15;;
65971;SDS011;52726;48.852;9.152;2022-12-16T14:23:38;9.02;;;4.45;;
65971;SDS011;52726;48.852;9.152;2022-12-16T14:26:26;7.97;;;3.53;;
65971;SDS011;52726;48.852;9.152;2022-12-16T14:29:17;6.72;;;4.53;;
65971;SDS011;52726;48.852;9.152;2022-12-16T14:35:12;9.35;;;4.43;;
65971;SDS011;52726;48.852;9.152;2022-12-16T14:41:17;7.85;;;4.22;;
65971;SDS011;52726;48.852;9.152;2022-12-16T14:44:04;10.55;;;4.97;;
65971;SDS011;52726;48.852;9.152;2022-12-16T14:46:58;7.72;;;4.88;;
65971;SDS011;52726;48.852;9.152;2022-12-16T14:49:52;8.55;;;5.07;;
65971;SDS011;52726;48.852;9.152;2022-12-16T14:52:37;12.13;;;4.60;;
65971;SDS011;52726;48.852;9.152;2022-12-16T14:55:32;7.55;;;4.22;;
65971;SDS011;52726;48.852;9.152;2022-12-16T14:58:18;8.52;;;4.93;;
65971;SDS011;52726;48.852;9.152;2022-12-16T15:01:16;11.68;;;5.20;;
65971;SDS011;52726;48.852;9.152;2022-12-16T15:04:03;17.58;;;8.18;;
65971;SDS011;52726;48.852;9.152;2022-12-16T15:06:52;9.52;;;5.45;;
65971;SDS011;52726;48.852;9.152;2022-12-16T15:09:41;9.52;;;5.15;;
65971;SDS011;52726;48.852;9.152;2022-12-16T15:12:31;10.00;;;5.07;;
65971;SDS011;52726;48.852;9.152;2022-12-16T15:15:22;9.82;;;4.03;;
65971;SDS011;52726;48.852;9.152;2022-12-16T15:18:18;5.78;;;3.45;;
65971;SDS011;52726;48.852;9.152;2022-12-16T15:21:06;6.85;;;3.75;;
65971;SDS011;52726;48.852;9.152;2022-12-16T15:23:51;9.02;;;4.50;;
65971;SDS011;52726;48.852;9.152;2022-12-16T15:26:35;7.35;;;4.15;;
65971;SDS011;52726;48.852;9.152;2022-12-16T15:35:22;7.90;;;5.00;;
65971;SDS011;52726;48.852;9.152;2022-12-16T15:41:00;6.80;;;3.97;;
65971;SDS011;52726;48.852;9.152;2022-12-16T15:43:48;6.93;;;3.50;;
65971;SDS011;52726;48.852;9.152;2022-12-16T15:46:36;11.43;;;4.72;;
65971;SDS011;52726;48.852;9.152;2022-12-16T15:58:27;9.43;;;4.40;;
65971;SDS011;52726;48.852;9.152;2022-12-16T16:01:18;5.38;;;3.80;;
65971;SDS011;52726;48.852;9.152;2022-12-16T16:04:14;5.90;;;4.05;;
65971;SDS011;52726;48.852;9.152;2022-12-16T16:07:03;14.07;;;6.13;;
65971;SDS011;52726;48.852;9.152;2022-12-16T16:10:01;8.90;;;4.47;;
65971;SDS011;52726;48.852;9.152;2022-12-16T16:13:05;6.35;;;5.40;;
65971;SDS011;52726;48.852;9.152;2022-12-16T16:15:50;6.93;;;4.28;;
65971;SDS011;52726;48.852;9.152;2022-12-16T16:18:35;12.95;;;5.45;;
65971;SDS011;52726;48.852;9.152;2022-12-16T16:21:19;5.72;;;3.72;;
65971;SDS011;52726;48.852;9.152;2022-12-16T16:24:03;6.45;;;3.50;;
65971;SDS011;52726;48.852;9.152;2022-12-16T16:26:47;8.60;;;4.82;;
65971;SDS011;52726;48.852;9.152;2022-12-16T16:29:31;29.52;;;5.68;;
65971;SDS011;52726;48.852;9.152;2022-12-16T16:32:15;8.23;;;4.78;;
65971;SDS011;52726;48.852;9.152;2022-12-16T16:35:00;11.45;;;5.22;;
65971;SDS011;52726;48.852;9.152;2022-12-16T16:37:44;12.60;;;6.53;;
65971;SDS011;52726;48.852;9.152;2022-12-16T16:40:35;21.48;;;6.40;;
65971;SDS011;52726;48.852;9.152;2022-12-16T16:43:21;12.18;;;5.60;;
65971;SDS011;52726;48.852;9.152;2022-12-16T16:49:02;14.05;;;5.38;;
65971;SDS011;52726;48.852;9.152;2022-12-16T16:51:47;6.13;;;3.53;;
65971;SDS011;52726;48.852;9.152;2022-12-16T16:54:31;9.65;;;5.32;;
65971;SDS011;52726;48.852;9.152;2022-12-16T16:57:15;23.08;;;6.70;;
65971;SDS011;52726;48.852;9.152;2022-12-16T16:59:59;10.93;;;6.78;;
65971;SDS011;52726;48.852;9.152;2022-12-16T17:02:43;12.00;;;5.20;;
65971;SDS011;52726;48.852;9.152;2022-12-16T17:05:27;13.30;;;5.65;;
65971;SDS011;52726;48.852;9.152;2022-12-16T17:08:11;11.60;;;5.40;;
65971;SDS011;52726;48.852;9.152;2022-12-16T17:10:54;18.15;;;5.78;;
65971;SDS011;52726;48.852;9.152;2022-12-16T17:13:39;21.15;;;6.88;;
65971;SDS011;52726;48.852;9.152;2022-12-16T17:16:36;13.68;;;6.05;;
65971;SDS011;52726;48.852;9.152;2022-12-16T17:19:20;9.63;;;5.20;;
65971;SDS011;52726;48.852;9.152;2022-12-16T17:22:04;8.50;;;4.88;;
65971;SDS011;52726;48.852;9.152;2022-12-16T17:24:59;9.07;;;4.80;;
65971;SDS011;52726;48.852;9.152;2022-12-16T17:27:43;5.30;;;3.97;;
65971;SDS011;52726;48.852;9.152;2022-12-16T17:30:28;11.43;;;5.53;;
65971;SDS011;52726;48.852;9.152;2022-12-16T17:33:12;10.77;;;5.47;;
65971;SDS011;52726;48.852;9.152;2022-12-16T17:35:57;11.23;;;6.05;;
65971;SDS011;52726;48.852;9.152;2022-12-16T17:38:46;10.57;;;5.95;;
65971;SDS011;52726;48.852;9.152;2022-12-16T17:41:30;6.68;;;4.45;;
65971;SDS011;52726;48.852;9.152;2022-12-16T17:44:15;15.63;;;7.50;;
65971;SDS011;52726;48.852;9.152;2022-12-16T17:46:59;6.38;;;5.15;;
65971;SDS011;52726;48.852;9.152;2022-12-16T17:49:44;8.07;;;4.07;;
65971;SDS011;52726;48.852;9.152;2022-12-16T17:52:28;12.48;;;6.53;;
65971;SDS011;52726;48.852;9.152;2022-12-16T17:55:12;9.02;;;5.80;;
65971;SDS011;52726;48.852;9.152;2022-12-16T17:57:57;16.55;;;6.35;;
65971;SDS011;52726;48.852;9.152;2022-12-16T18:00:41;14.27;;;6.53;;
65971;SDS011;52726;48.852;9.152;2022-12-16T18:03:26;10.32;;;4.10;;
65971;SDS011;52726;48.852;9.152;2022-12-16T18:06:10;14.27;;;7.85;;
65971;SDS011;52726;48.852;9.152;2022-12-16T18:08:54;8.88;;;6.28;;
65971;SDS011;52726;48.852;9.152;2022-12-16T18:11:38;24.45;;;5.90;;
65971;SDS011;52726;48.852;9.152;2022-12-16T18:14:22;11.55;;;6.40;;
65971;SDS011;52726;48.852;9.152;2022-12-16T18:17:06;8.02;;;4.80;;
65971;SDS011;52726;48.852;9.152;2022-12-16T18:19:50;7.78;;;4.35;;
65971;SDS011;52726;48.852;9.152;2022-12-16T18:22:34;9.45;;;4.30;;
65971;SDS011;52726;48.852;9.152;2022-12-16T18:25:18;9.80;;;4.53;;
65971;SDS011;52726;48.852;9.152;2022-12-16T18:28:02;12.98;;;5.80;;
65971;SDS011;52726;48.852;9.152;2022-12-16T18:30:46;10.85;;;6.05;;
65971;SDS011;52726;48.852;9.152;2022-12-16T18:33:30;15.50;;;7.32;;
65971;SDS011;52726;48.852;9.152;2022-12-16T18:36:15;16.85;;;6.25;;
65971;SDS011;52726;48.852;9.152;2022-12-16T18:39:06;15.35;;;7.30;;
65971;SDS011;52726;48.852;9.152;2022-12-16T18:41:50;15.63;;;6.40;;
65971;SDS011;52726;48.852;9.152;2022-12-16T18:44:34;11.50;;;6.10;;
65971;SDS011;52726;48.852;9.152;2022-12-16T18:47:22;13.50;;;5.80;;
65971;SDS011;52726;48.852;9.152;2022-12-16T18:50:07;10.10;;;5.93;;
65971;SDS011;52726;48.852;9.152;2022-12-16T18:52:51;8.98;;;4.95;;
65971;SDS011;52726;48.852;9.152;2022-12-16T18:56:35;12.85;;;6.82;;
65971;SDS011;52726;48.852;9.152;2022-12-16T19:02:56;12.57;;;5.50;;
65971;SDS011;52726;48.852;9.152;2022-12-16T19:05:51;10.05;;;5.70;;
65971;SDS011;52726;48.852;9.152;2022-12-16T19:08:44;6.37;;;5.07;;
65971;SDS011;52726;48.852;9.152;2022-12-16T19:11:34;7.93;;;4.90;;
65971;SDS011;52726;48.852;9.152;2022-12-16T19:14:21;8.25;;;5.22;;